Flight Track Log - Related Links

Times and Time Zones

All times are in EST time to prevent confusion due to time zone crossing. See the AAL1 flight status page for this flight to view local times or setup timezone preferences in your user account.

Time Position Orientation Groundspeed Altitude Reporting Facility
EST Latitude Longitude Course Direction KTS km/h feet Rate Location/Type
Fri 09:17:53 40.7345 -73.8426 125° Southeast  Level FlightAware Approximate
Fri 09:21:05 40.6667 -73.7167 62° Northeast 199 369 2,100  Level New York TRACON
Fri 09:22:11 40.7000 -73.6333 52° Northeast 251 465 4,600 2,238 Climbing New York TRACON
Fri 09:23:11 40.7500 -73.5500 45° Northeast 286 529 6,800 2,211 Climbing New York TRACON
Fri 09:24:05 40.8000 -73.4833 323° Northwest 304 563 8,800 2,100 Climbing New York TRACON
Fri 09:25:11 40.8667 -73.5500 315° West 269 499 11,000 2,000 Climbing New York TRACON
Fri 09:26:11 40.9167 -73.6167 311° West 311 576 13,000 2,200 Climbing New York TRACON
Fri 09:27:11 40.9833 -73.7167 309° West 327 605 15,400 2,000 Climbing New York TRACON
Fri 09:28:11 41.0333 -73.8000 312° West 337 624 17,000 796 Climbing New York TRACON
Fri 09:30:27 41.1717 -74.0017 311° West 335 621 18,000 1,066 Climbing New York Center
Fri 09:31:28 41.2394 -74.1069 312° West 340 629 20,500 2,400 Climbing New York Center
Fri 09:32:27 41.3033 -74.2011 312° West 345 639 22,800 2,150 Climbing New York Center
Fri 09:33:28 41.3711 -74.3014 307° West 345 639 24,800 1,180 Climbing New York Center
Fri 09:34:29 41.4306 -74.4069 298° West 355 658 25,200 1,091 Climbing New York Center
Fri 09:35:29 41.4769 -74.5228 298° West 355 658 27,000 1,800 Climbing New York Center
Fri 09:36:29 41.5231 -74.6392 302° West 355 658 28,800 1,729 Climbing New York Center
Fri 09:37:27 41.5794 -74.7617 299° West 366 678 30,400 1,932 Climbing New York Center
Fri 09:38:27 41.6275 -74.8756 300° West 366 678 32,600 1,736 Climbing New York Center
Fri 09:39:28 41.6775 -74.9925 300° West 366 678 33,900 689 Climbing New York Center
Fri 09:40:29 41.7256 -75.1039 299° West 366 678 34,000 50 Climbing New York Center
Fri 09:41:27 41.7714 -75.2153 300° West 354 655 34,000  Level New York Center
Fri 09:42:28 41.8175 -75.3214 299° West 344 637 34,000  Level New York Center
Fri 09:43:30 41.8611 -75.4272 300° West 339 628 34,000  Level New York Center
Fri 09:44:27 41.9069 -75.5336 299° West 339 628 34,000  Level New York Center
Fri 09:45:28 41.9525 -75.6428 298° West 339 628 34,000  Level New York Center
Fri 09:46:29 41.9978 -75.7578 300° West 339 628 34,000  Level New York Center
Fri 09:47:30 42.0450 -75.8675 299° West 339 628 34,000  Level New York Center
Fri 09:49:13 42.1233 -76.0586 222° Southwest 339 628 34,000  Level Cleveland Center
Fri 09:49:21 42.1167 -76.0667 303° West 340 629 34,000  Level Toronto Center
Fri 09:50:13 42.1650 -76.1678 292° West 339 628 34,000  Level Cleveland Center
Fri 09:51:13 42.2008 -76.2858 296° West 339 628 34,000  Level Cleveland Center
Fri 09:52:13 42.2450 -76.4092 293° West 339 628 34,000  Level Cleveland Center
Fri 09:53:13 42.2803 -76.5219 295° West 334 618 34,000  Level Cleveland Center
Fri 09:54:13 42.3175 -76.6319 293° West 328 607 34,000  Level Cleveland Center
Fri 09:55:13 42.3525 -76.7450 293° West 335 621 34,000  Level Cleveland Center
Fri 09:56:13 42.3875 -76.8581 293° West 330 612 34,000  Level Cleveland Center
Fri 09:57:13 42.4222 -76.9686 293° West 330 612 34,000  Level Cleveland Center
Fri 09:58:13 42.4572 -77.0819 294° West 330 612 34,000  Level Cleveland Center
Fri 09:59:13 42.4892 -77.1817 293° West 325 602 34,000  Level Cleveland Center
Fri 10:00:13 42.5239 -77.2925 292° West 325 602 34,000  Level Cleveland Center
Fri 10:01:13 42.5561 -77.4036 292° West 325 602 34,000  Level Cleveland Center
Fri 10:02:13 42.5883 -77.5147 293° West 325 602 34,000  Level Cleveland Center
Fri 10:03:13 42.6225 -77.6261 293° West 325 602 34,000  Level Cleveland Center
Fri 10:04:13 42.6564 -77.7344 293° West 325 602 34,000  Level Cleveland Center
Fri 10:05:13 42.6947 -77.8569 292° West 325 602 34,000  Level Cleveland Center
Fri 10:06:13 42.7286 -77.9686 291° West 325 602 34,000  Level Cleveland Center
Fri 10:07:13 42.7558 -78.0664 293° West 320 592 34,000  Level Cleveland Center
Fri 10:08:13 42.7894 -78.1756 293° West 320 592 34,000  Level Cleveland Center
Fri 10:09:13 42.8231 -78.2847 290° West 320 592 34,000  Level Cleveland Center
Fri 10:10:13 42.8544 -78.3997 293° West 320 592 34,000  Level Cleveland Center
Fri 10:11:13 42.8897 -78.5117 291° West 320 592 34,000  Level Cleveland Center
Fri 10:12:13 42.9231 -78.6297 296° West 325 602 34,000  Level Cleveland Center
Fri 10:14:21 43.0000 -78.8500 291° West 330 612 34,000  Level Toronto Center
Fri 10:15:21 43.0333 -78.9667 291° West 330 612 34,000  Level Toronto Center
Fri 10:16:21 43.0667 -79.0833 289° West 340 629 34,000  Level Toronto Center
Fri 10:17:21 43.1000 -79.2167 291° West 340 629 34,000  Level Toronto Center
Fri 10:18:21 43.1333 -79.3333 300° West 340 629 34,000  Level Toronto Center
Fri 10:19:21 43.1833 -79.4500 291° West 340 629 34,000  Level Toronto Center
Fri 10:20:21 43.2167 -79.5667 291° West 340 629 34,000  Level Toronto Center
Fri 10:21:21 43.2500 -79.6833 289° West 350 649 34,000  Level Toronto Center
Fri 10:22:21 43.2833 -79.8167 289° West 340 629 34,000  Level Toronto Center
Fri 10:23:21 43.3167 -79.9500 301° West 350 649 34,000  Level Toronto Center
Fri 10:24:21 43.3667 -80.0667 292° West 350 649 34,000  Level Toronto Center
Fri 10:25:21 43.4000 -80.1833 289° West 350 649 34,000  Level Toronto Center
Fri 10:26:21 43.4333 -80.3167 301° West 360 666 34,000  Level Toronto Center
Fri 10:27:21 43.4833 -80.4333 287° West 370 686 34,000  Level Toronto Center
Fri 10:28:21 43.5167 -80.5833 289° West 370 686 34,000 50 Level Toronto Center
Fri 10:29:21 43.5500 -80.7167 289° West 370 686 34,100 800 Climbing Toronto Center
Fri 10:30:21 43.5833 -80.8500 292° West 370 686 35,600 1,600 Climbing Toronto Center
Fri 10:31:21 43.6167 -80.9667 301° West 360 666 37,300 1,200 Climbing Toronto Center
Fri 10:32:21 43.6667 -81.0833 289° West 350 649 38,000 350 Climbing Toronto Center
Fri 10:33:21 43.7000 -81.2167 292° West 350 649 38,000  Level Toronto Center
Fri 10:34:21 43.7333 -81.3333 301° West 350 649 38,000  Level Toronto Center
Fri 10:35:21 43.7833 -81.4500 287° West 350 649 38,000  Level Toronto Center
Fri 10:36:21 43.8167 -81.6000 292° West 350 649 38,000  Level Toronto Center
Fri 10:37:21 43.8500 -81.7167 301° West 350 649 38,000  Level Toronto Center
Fri 10:38:21 43.9000 -81.8333 280° West 350 649 38,000  Level Toronto Center
Fri 10:39:21 43.9167 -81.9667 292° West 350 649 38,000  Level Toronto Center
Fri 10:40:21 43.9500 -82.0833 301° West 350 649 38,000  Level Toronto Center
Fri 10:41:21 44.0000 -82.2000 287° West 350 649 38,000  Level Toronto Center
Fri 10:42:21 44.0333 -82.3500 294° West 360 666 38,000  Level Toronto Center
Fri 10:42:44 44.0478 -82.3953 292° West 355 658 38,000  Level Minneapolis Center
Fri 10:43:44 44.0853 -82.5217 291° West 355 658 38,000  Level Minneapolis Center
Fri 10:44:44 44.1208 -82.6483 291° West 355 658 38,000  Level Minneapolis Center
Fri 10:45:44 44.1561 -82.7756 291° West 355 658 38,000  Level Minneapolis Center
Fri 10:46:44 44.1911 -82.9028 290° West 355 658 38,000  Level Minneapolis Center
Fri 10:47:43 44.2242 -83.0306 292° West 355 658 38,000  Level Minneapolis Center
Fri 10:48:44 44.2614 -83.1606 291° West 355 658 38,000  Level Minneapolis Center
Fri 10:49:44 44.2961 -83.2883 292° West 355 658 38,000  Level Minneapolis Center
Fri 10:50:44 44.3331 -83.4186 291° West 355 658 38,000  Level Minneapolis Center
Fri 10:51:44 44.3697 -83.5492 290° West 360 666 38,000  Level Minneapolis Center
Fri 10:52:44 44.4042 -83.6803 291° West 360 666 38,000  Level Minneapolis Center
Fri 10:53:44 44.4408 -83.8111 290° West 360 666 38,000  Level Minneapolis Center
Fri 10:54:44 44.4756 -83.9483 291° West 366 678 38,000  Level Minneapolis Center
Fri 10:55:44 44.5117 -84.0797 291° West 366 678 38,000  Level Minneapolis Center
Fri 10:56:44 44.5478 -84.2111 289° West 371 687 38,000  Level Minneapolis Center
Fri 10:57:44 44.5792 -84.3406 291° West 371 687 38,000  Level Minneapolis Center
Fri 10:58:44 44.6150 -84.4725 291° West 371 687 38,000  Level Minneapolis Center
Fri 10:59:44 44.6503 -84.6014 289° West 366 678 38,000  Level Minneapolis Center
Fri 11:00:43 44.6814 -84.7314 269° West 360 666 38,000  Level Minneapolis Center
Fri 11:01:44 44.6794 -84.8692 268° West 353 653 38,000  Level Minneapolis Center
Fri 11:02:44 44.6756 -85.0103 269° West 353 653 38,000  Level Minneapolis Center
Fri 11:03:44 44.6731 -85.1453 267° West 353 653 38,000  Level Minneapolis Center
Fri 11:04:43 44.6686 -85.2836 269° West 353 653 38,000  Level Minneapolis Center
Fri 11:05:44 44.6661 -85.4214 267° West 353 653 38,000  Level Minneapolis Center
Fri 11:06:44 44.6611 -85.5597 268° West 353 653 38,000  Level Minneapolis Center
Fri 11:07:44 44.6572 -85.7122 269° West 359 665 38,000  Level Minneapolis Center
Fri 11:08:43 44.6550 -85.8325 268° West 359 665 38,000  Level Minneapolis Center
Fri 11:09:44 44.6519 -85.9733 267° West 365 676 38,000  Level Minneapolis Center
Fri 11:10:44 44.6467 -86.1142 268° West 360 666 38,000  Level Minneapolis Center
Fri 11:11:44 44.6419 -86.2669 268° West 360 666 38,000  Level Minneapolis Center
Fri 11:12:44 44.6383 -86.4075 267° West 370 686 38,000  Level Minneapolis Center
Fri 11:13:44 44.6325 -86.5486 267° West 370 686 38,000  Level Minneapolis Center
Fri 11:14:44 44.6264 -86.6894 267° West 370 686 38,000  Level Minneapolis Center
Fri 11:15:44 44.6217 -86.8217 267° West 370 686 38,000  Level Minneapolis Center
Fri 11:16:44 44.6161 -86.9742 266° West 427 790 38,000  Level Minneapolis Center
Fri 11:17:44 44.6097 -87.1181 267° West 393 727 38,000  Level Minneapolis Center
Fri 11:18:44 44.6050 -87.2586 266° West 373 690 38,000  Level Minneapolis Center
Fri 11:19:43 44.5983 -87.4025 267° West 373 690 38,000  Level Minneapolis Center
Fri 11:20:44 44.5933 -87.5458 265° West 373 690 38,000  Level Minneapolis Center
Fri 11:21:44 44.5839 -87.6869 267° West 373 690 38,000  Level Minneapolis Center
Fri 11:22:44 44.5789 -87.8303 266° West 373 690 38,000  Level Minneapolis Center
Fri 11:23:44 44.5725 -87.9564 267° West 373 690 38,000  Level Minneapolis Center
Fri 11:24:44 44.5667 -88.0969 265° West 368 681 38,000  Level Minneapolis Center
Fri 11:25:44 44.5586 -88.2347 267° West 361 668 38,000  Level Minneapolis Center
Fri 11:26:43 44.5528 -88.3783 266° West 367 679 38,000  Level Minneapolis Center
Fri 11:27:44 44.5464 -88.5186 266° West 367 679 38,000  Level Minneapolis Center
Fri 11:28:44 44.5400 -88.6592 266° West 367 679 38,000  Level Minneapolis Center
Fri 11:29:43 44.5336 -88.8025 266° West 367 679 38,000  Level Minneapolis Center
Fri 11:30:44 44.5267 -88.9458 268° West 373 690 38,000 -100 Level Minneapolis Center
Fri 11:31:43 44.5239 -89.0858 265° West 368 681 37,800 -1,714 Descending Minneapolis Center
Fri 11:32:43 44.5147 -89.2292 266° West 375 695 34,600 -2,430 Descending Minneapolis Center
Fri 11:33:44 44.5078 -89.3753 266° West 380 703 32,900 -1,289 Descending Minneapolis Center
Fri 11:34:44 44.5006 -89.5214 265° West 375 695 32,000 -454 Descending Minneapolis Center
Fri 11:35:43 44.4925 -89.6558 267° West 357 661 32,000  Level Minneapolis Center
Fri 11:36:43 44.4869 -89.7989 264° West 362 671 32,000  Level Minneapolis Center
Fri 11:37:44 44.4769 -89.9422 266° West 367 679 32,000  Level Minneapolis Center
Fri 11:38:43 44.4706 -90.0822 265° West 368 681 32,000  Level Minneapolis Center
Fri 11:39:43 44.4622 -90.2222 264° West 368 681 32,000  Level Minneapolis Center
Fri 11:40:44 44.4517 -90.3625 267° West 368 681 32,000  Level Minneapolis Center
Fri 11:41:44 44.4469 -90.4994 265° West 368 681 32,000  Level Minneapolis Center
Fri 11:42:44 44.4381 -90.6425 265° West 368 681 32,000  Level Minneapolis Center
Fri 11:43:44 44.4292 -90.7853 267° West 368 681 32,000  Level Minneapolis Center
Fri 11:44:44 44.4253 -90.8931 265° West 368 681 32,000  Level Minneapolis Center
Fri 11:45:43 44.4161 -91.0475 265° West 368 681 32,000  Level Minneapolis Center
Fri 11:46:44 44.4069 -91.2047 264° West 368 681 32,000  Level Minneapolis Center
Fri 11:47:44 44.3972 -91.3447 266° West 368 681 32,000  Level Minneapolis Center
Fri 11:48:43 44.3894 -91.4900 264° West 368 681 32,000  Level Minneapolis Center
Fri 11:49:43 44.3792 -91.6356 264° West 368 681 32,000  Level Minneapolis Center
Fri 11:50:43 44.3689 -91.7753 265° West 373 690 32,000  Level Minneapolis Center
Fri 11:51:44 44.3606 -91.9178 264° West 373 690 32,000  Level Minneapolis Center
Fri 11:52:44 44.3500 -92.0633 264° West 373 690 32,000  Level Minneapolis Center
Fri 11:53:44 44.3392 -92.2058 264° West 373 690 32,000  Level Minneapolis Center
Fri 11:54:43 44.3300 -92.3336 264° West 368 681 32,000  Level Minneapolis Center
Fri 11:55:43 44.3189 -92.4789 265° West 374 692 32,000  Level Minneapolis Center
Fri 11:56:43 44.3094 -92.6211 264° West 374 692 32,000  Level Minneapolis Center
Fri 11:57:44 44.2981 -92.7606 264° West 374 692 32,000  Level Minneapolis Center
Fri 11:58:44 44.2864 -92.9056 263° West 369 684 32,000  Level Minneapolis Center
Fri 11:59:43 44.2722 -93.0622 264° West 369 684 32,000  Level Minneapolis Center
Fri 12:00:44 44.2622 -93.2042 263° West 369 684 32,000  Level Minneapolis Center
Fri 12:01:44 44.2500 -93.3492 263° West 369 684 32,000  Level Minneapolis Center
Fri 12:02:43 44.2375 -93.4939 264° West 374 692 32,000  Level Minneapolis Center
Fri 12:03:44 44.2269 -93.6389 263° West 374 692 32,000  Level Minneapolis Center
Fri 12:04:44 44.2142 -93.7806 263° West 379 702 32,000  Level Minneapolis Center
Fri 12:05:44 44.2031 -93.9136 262° West 385 713 32,000  Level Minneapolis Center
Fri 12:06:44 44.1878 -94.0611 263° West 385 713 32,000  Level Minneapolis Center
Fri 12:07:43 44.1744 -94.2056 264° West 385 713 32,000  Level Minneapolis Center
Fri 12:08:43 44.1631 -94.3472 263° West 385 713 32,000  Level Minneapolis Center
Fri 12:09:43 44.1492 -94.4944 262° West 390 723 32,000  Level Minneapolis Center
Fri 12:10:43 44.1356 -94.6217 266° West 383 710 32,000  Level Minneapolis Center
Fri 12:11:44 44.1275 -94.7775 261° West 383 710 32,000  Level Minneapolis Center
Fri 12:12:43 44.1111 -94.9217 262° West 383 710 32,000  Level Minneapolis Center
Fri 12:13:43 44.0967 -95.0628 263° West 383 710 32,000  Level Minneapolis Center
Fri 12:14:44 44.0839 -95.2042 262° West 383 710 32,000  Level Minneapolis Center
Fri 12:15:43 44.0692 -95.3511 261° West 383 710 32,000  Level Minneapolis Center
Fri 12:16:44 44.0517 -95.5092 262° West 383 710 32,000  Level Minneapolis Center
Fri 12:17:44 44.0364 -95.6531 262° West 388 719 32,000  Level Minneapolis Center
Fri 12:18:44 44.0208 -95.7997 261° West 388 719 32,000  Level Minneapolis Center
Fri 12:19:44 44.0053 -95.9406 260° West 388 719 32,000  Level Minneapolis Center
Fri 12:20:43 43.9875 -96.0869 262° West 388 719 32,000  Level Minneapolis Center
Fri 12:21:44 43.9739 -96.2161 261° West 388 719 32,000  Level Minneapolis Center
Fri 12:22:43 43.9575 -96.3622 262° West 388 719 32,000  Level Minneapolis Center
Fri 12:23:43 43.9433 -96.5058 261° West 388 719 32,000  Level Minneapolis Center
Fri 12:24:44 43.9267 -96.6519 260° West 388 719 32,000  Level Minneapolis Center
Fri 12:25:44 43.9075 -96.8092 261° West 388 719 32,000  Level Minneapolis Center
Fri 12:26:44 43.8903 -96.9581 262° West 388 719 32,000  Level Minneapolis Center
Fri 12:27:44 43.8753 -97.1042 261° West 388 719 32,000  Level Minneapolis Center
Fri 12:28:44 43.8578 -97.2497 262° West 388 719 32,000  Level Minneapolis Center
Fri 12:29:44 43.8422 -97.3956 262° West 388 719 32,000  Level Minneapolis Center
Fri 12:30:44 43.8297 -97.5156 260° West 388 719 32,000  Level Minneapolis Center
Fri 12:31:44 43.8089 -97.6783 260° West 388 719 32,000  Level Minneapolis Center
Fri 12:32:44 43.7908 -97.8236 260° West 388 719 32,000  Level Minneapolis Center
Fri 12:33:44 43.7725 -97.9717 260° West 388 719 32,000  Level Minneapolis Center
Fri 12:34:44 43.7539 -98.1169 260° West 388 719 32,000  Level Minneapolis Center
Fri 12:35:44 43.7350 -98.2650 260° West 388 719 32,000  Level Minneapolis Center
Fri 12:36:44 43.7161 -98.4128 259° West 388 719 32,000 500 Level Minneapolis Center
Fri 12:37:44 43.6942 -98.5747 262° West 388 719 33,000 1,750 Climbing Minneapolis Center
Fri 12:38:44 43.6789 -98.7197 260° West 393 727 35,500 2,370 Climbing Minneapolis Center
Fri 12:39:43 43.6625 -98.8475 258° West 372 689 37,700 1,250 Climbing Minneapolis Center
Fri 12:40:44 43.6436 -98.9750 260° West 353 653 38,000 149 Climbing Minneapolis Center
Fri 12:41:44 43.6269 -99.1025 259° West 347 642 38,000  Level Minneapolis Center
Fri 12:42:44 43.6075 -99.2356 260° West 354 655 38,000  Level Minneapolis Center
Fri 12:43:44 43.5900 -99.3686 258° West 354 655 38,000  Level Minneapolis Center
Fri 12:44:44 43.5706 -99.4986 259° West 354 655 38,000  Level Minneapolis Center
Fri 12:45:44 43.5506 -99.6342 259° West 359 665 38,000  Level Minneapolis Center
Fri 12:46:44 43.5325 -99.7669 259° West 359 665 38,000  Level Minneapolis Center
Fri 12:47:44 43.5153 -99.8883 254° West 359 665 38,000  Level Minneapolis Center
Fri 12:50:13 43.4436 -100.2239 251° West 354 655 38,000  Level Denver Center
Fri 12:51:13 43.4128 -100.3500 252° West 360 666 38,000  Level Denver Center
Fri 12:52:13 43.3822 -100.4817 250° West 360 666 38,000  Level Denver Center
Fri 12:53:13 43.3489 -100.6106 254° West 360 666 38,000  Level Denver Center
Fri 12:54:13 43.3203 -100.7444 249° West 360 666 38,000  Level Denver Center
Fri 12:55:13 43.2867 -100.8675 250° West 354 655 38,000  Level Denver Center
Fri 12:56:13 43.2531 -100.9958 252° West 359 665 38,000  Level Denver Center
Fri 12:57:13 43.2217 -101.1269 252° West 359 665 38,000  Level Denver Center
Fri 12:58:13 43.1919 -101.2547 249° West 359 665 38,000  Level Denver Center
Fri 12:59:13 43.1558 -101.3803 251° West 359 665 38,000  Level Denver Center
Fri 13:00:13 43.1236 -101.5081 251° West 354 655 38,000  Level Denver Center
Fri 13:01:13 43.0914 -101.6328 249° West 354 655 38,000  Level Denver Center
Fri 13:02:13 43.0569 -101.7575 252° West 354 655 38,000  Level Denver Center
Fri 13:03:13 43.0264 -101.8822 252° West 359 665 38,000  Level Denver Center
Fri 13:04:13 42.9958 -102.0092 249° West 359 665 38,000  Level Denver Center
Fri 13:05:13 42.9628 -102.1250 249° West 354 655 38,000  Level Denver Center
Fri 13:06:13 42.9278 -102.2522 251° West 354 655 38,000  Level Denver Center
Fri 13:07:13 42.8911 -102.3936 251° West 354 655 38,000  Level Denver Center
Fri 13:08:13 42.8581 -102.5233 248° West 354 655 38,000  Level Denver Center
Fri 13:09:13 42.8244 -102.6386 250° West 354 655 38,000  Level Denver Center
Fri 13:10:13 42.7853 -102.7853 249° West 365 676 38,000  Level Denver Center
Fri 13:11:13 42.7497 -102.9089 251° West 370 686 38,000  Level Denver Center
Fri 13:12:13 42.7161 -103.0436 248° West 370 686 38,000  Level Denver Center
Fri 13:13:13 42.6819 -103.1583 249° West 375 695 38,000  Level Denver Center
Fri 13:14:13 42.6422 -103.3017 251° West 370 686 38,000  Level Denver Center
Fri 13:15:13 42.6081 -103.4331 248° West 375 695 38,000  Level Denver Center
Fri 13:16:13 42.5697 -103.5617 249° West 370 686 38,000  Level Denver Center
Fri 13:17:13 42.5372 -103.6789 248° West 375 695 38,000  Level Denver Center
Fri 13:18:13 42.4947 -103.8214 249° West 375 695 38,000  Level Denver Center
Fri 13:19:13 42.4578 -103.9525 248° West 375 695 38,000  Level Denver Center
Fri 13:20:13 42.4189 -104.0806 248° West 375 695 38,000  Level Denver Center
Fri 13:21:13 42.3839 -104.1997 249° West 375 695 38,000  Level Denver Center
Fri 13:22:13 42.3467 -104.3303 249° West 375 695 38,000  Level Denver Center
Fri 13:23:13 42.3056 -104.4750 248° West 375 695 38,000  Level Denver Center
Fri 13:24:13 42.2661 -104.6081 249° West 375 695 38,000  Level Denver Center
Fri 13:25:13 42.2283 -104.7408 248° West 375 695 38,000  Level Denver Center
Fri 13:26:13 42.1928 -104.8622 248° West 375 695 38,000  Level Denver Center
Fri 13:27:13 42.1486 -105.0089 249° West 380 703 38,000  Level Denver Center
Fri 13:28:13 42.1108 -105.1414 248° West 380 703 38,000  Level Denver Center
Fri 13:29:13 42.0706 -105.2736 247° West 380 703 38,000  Level Denver Center
Fri 13:30:13 42.0319 -105.3947 248° West 380 703 38,000  Level Denver Center
Fri 13:31:13 41.9875 -105.5433 249° West 390 723 38,000  Level Denver Center
Fri 13:32:13 41.9489 -105.6781 247° West 398 737 38,000  Level Denver Center
Fri 13:33:13 41.9039 -105.8181 247° West 398 737 38,000  Level Denver Center
Fri 13:34:13 41.8650 -105.9411 245° Southwest 398 737 38,000  Level Denver Center
Fri 13:35:13 41.8133 -106.0892 241° Southwest 398 737 38,000  Level Denver Center
Fri 13:36:13 41.7594 -106.2203 240° Southwest 403 747 38,000  Level Denver Center
Fri 13:37:13 41.7033 -106.3511 241° Southwest 408 756 38,000  Level Denver Center
Fri 13:38:13 41.6556 -106.4678 239° Southwest 403 747 38,000  Level Denver Center
Fri 13:39:13 41.5992 -106.5928 241° Southwest 403 747 38,000  Level Denver Center
Fri 13:40:13 41.5386 -106.7369 241° Southwest 397 735 38,000  Level Denver Center
Fri 13:41:13 41.4861 -106.8642 241° Southwest 402 745 38,000  Level Denver Center
Fri 13:42:13 41.4375 -106.9803 239° Southwest 396 734 38,000  Level Denver Center
Fri 13:43:13 41.3786 -107.1100 241° Southwest 402 745 38,000  Level Denver Center
Fri 13:44:13 41.3194 -107.2503 240° Southwest 396 734 38,000  Level Denver Center
Fri 13:45:13 41.2622 -107.3822 243° Southwest 402 745 38,000  Level Denver Center
Fri 13:46:13 41.2172 -107.4975 239° Southwest 397 735 38,000  Level Denver Center
Fri 13:47:13 41.1597 -107.6264 240° Southwest 397 735 38,000  Level Denver Center
Fri 13:48:13 41.1000 -107.7658 241° Southwest 397 735 38,000  Level Denver Center
Fri 13:49:13 41.0442 -107.8969 240° Southwest 402 745 38,000  Level Denver Center
Fri 13:50:13 40.9947 -108.0086 243° Southwest 396 734 38,000  Level Denver Center
Fri 13:51:13 40.9450 -108.1394 241° Southwest 396 734 38,000  Level Denver Center
Fri 13:51:14 40.9372 -108.1578 243° Southwest 399 739 38,000  Level Salt Lake Center
Fri 13:52:16 40.8881 -108.2836 243° Southwest 401 742 38,000  Level Salt Lake Center
Fri 13:53:18 40.8389 -108.4094 243° Southwest 401 742 38,000  Level Salt Lake Center
Fri 13:54:20 40.7822 -108.5556 242° Southwest 400 740 38,000  Level Salt Lake Center
Fri 13:55:22 40.7322 -108.6800 243° Southwest 400 740 38,000  Level Salt Lake Center
Fri 13:56:24 40.6747 -108.8256 243° Southwest 400 740 38,000  Level Salt Lake Center
Fri 13:57:26 40.6258 -108.9492 243° Southwest 398 737 38,000  Level Salt Lake Center
Fri 13:58:28 40.5683 -109.0947 242° Southwest 399 739 38,000  Level Salt Lake Center
Fri 13:59:30 40.5136 -109.2297 243° Southwest 399 739 38,000  Level Salt Lake Center
Fri 14:00:32 40.4647 -109.3536 242° Southwest 399 739 38,000  Level Salt Lake Center
Fri 14:01:34 40.4056 -109.4994 242° Southwest 404 748 38,000  Level Salt Lake Center
Fri 14:02:36 40.3550 -109.6244 242° Southwest 406 752 38,000  Level Salt Lake Center
Fri 14:03:38 40.2953 -109.7706 242° Southwest 407 753 38,000  Level Salt Lake Center
Fri 14:04:41 40.2436 -109.8969 242° Southwest 411 761 38,000  Level Salt Lake Center
Fri 14:05:43 40.1914 -110.0239 235° Southwest 413 764 38,000  Level Salt Lake Center
Fri 14:06:45 40.1183 -110.1594 223° Southwest 414 766 38,000  Level Salt Lake Center
Fri 14:07:47 40.0386 -110.2553 222° Southwest 409 758 38,000  Level Salt Lake Center
Fri 14:08:49 39.9433 -110.3667 222° Southwest 409 758 38,000  Level Salt Lake Center
Fri 14:09:51 39.8619 -110.4619 222° Southwest 411 761 38,000  Level Salt Lake Center
Fri 14:10:53 39.7664 -110.5733 222° Southwest 412 763 38,000  Level Salt Lake Center
Fri 14:11:55 39.6850 -110.6686 222° Southwest 413 764 38,000  Level Salt Lake Center
Fri 14:12:57 39.5889 -110.7797 222° Southwest 414 766 38,000  Level Salt Lake Center
Fri 14:13:59 39.5072 -110.8747 221° Southwest 414 766 38,000  Level Salt Lake Center
Fri 14:15:01 39.4108 -110.9842 222° Southwest 414 766 38,000  Level Salt Lake Center
Fri 14:16:03 39.3289 -111.0786 221° Southwest 413 764 38,000  Level Salt Lake Center
Fri 14:17:05 39.2325 -111.1881 221° Southwest 413 764 38,000  Level Salt Lake Center
Fri 14:18:07 39.1411 -111.2897 222° Southwest 414 766 38,000  Level Salt Lake Center
Fri 14:19:09 39.0542 -111.3892 221° Southwest 412 763 38,000  Level Salt Lake Center
Fri 14:20:11 38.9661 -111.4883 220° Southwest 413 764 38,000  Level Salt Lake Center
Fri 14:21:13 38.8764 -111.5867 221° Southwest 417 772 38,000  Level Salt Lake Center
Fri 14:22:15 38.7872 -111.6864 221° Southwest 419 776 38,000  Level Salt Lake Center
Fri 14:23:17 38.6972 -111.7858 221° Southwest 419 776 38,000  Level Salt Lake Center
Fri 14:24:19 38.6064 -111.8867 220° Southwest 423 784 38,000  Level Salt Lake Center
Fri 14:25:21 38.5156 -111.9847 223° Southwest 422 782 38,000  Level Salt Lake Center
Fri 14:26:23 38.4294 -112.0889 226° Southwest 421 779 38,000  Level Salt Lake Center
Fri 14:27:25 38.3467 -112.1978 225° Southwest 421 779 38,000  Level Salt Lake Center
Fri 14:28:27 38.2625 -112.3042 225° Southwest 421 779 38,000  Level Salt Lake Center
Fri 14:29:29 38.1631 -112.4314 225° Southwest 418 774 38,000  Level Salt Lake Center
Fri 14:30:31 38.0811 -112.5369 225° Southwest 416 771 38,000  Level Salt Lake Center
Fri 14:31:33 37.9994 -112.6411 225° Southwest 412 763 38,000  Level Salt Lake Center
Fri 14:32:35 37.9169 -112.7461 225° Southwest 415 769 38,000  Level Salt Lake Center
Fri 14:33:37 37.8339 -112.8508 224° Southwest 416 771 38,000  Level Salt Lake Center
Fri 14:34:39 37.7500 -112.9542 224° Southwest 418 774 38,000  Level Salt Lake Center
Fri 14:35:41 37.6664 -113.0564 224° Southwest 420 777 38,000  Level Salt Lake Center
Fri 14:36:43 37.5817 -113.1589 224° Southwest 422 782 38,000 -97 Level Salt Lake Center
Fri 14:37:45 37.4803 -113.2814 224° Southwest 419 776 37,800 -871 Descending Salt Lake Center
Fri 14:38:47 37.3961 -113.3836 223° Southwest 419 776 36,200 -1,694 Descending Salt Lake Center
Fri 14:39:49 37.3083 -113.4872 223° Southwest 421 779 34,300 -1,659 Descending Salt Lake Center
Fri 14:40:50 37.2206 -113.5914 223° Southwest 426 789 32,800 -1,122 Descending Salt Lake Center
Fri 14:41:52 37.1344 -113.6933 225° Southwest 424 785 32,000 -593 Descending Salt Lake Center
Fri 14:42:11 37.1144 -113.7183 223° Southwest 428 793 32,000  Level Los Angeles Center
Fri 14:43:11 37.0308 -113.8172 221° Southwest 422 782 32,000  Level Los Angeles Center
Fri 14:44:12 36.9389 -113.9186 224° Southwest 416 771 32,000  Level Los Angeles Center
Fri 14:45:12 36.8572 -114.0169 224° Southwest 410 760 32,000  Level Los Angeles Center
Fri 14:46:12 36.7939 -114.0939 224° Southwest 410 760 32,000  Level Los Angeles Center
Fri 14:47:12 36.7078 -114.1969 222° Southwest 404 748 32,000  Level Los Angeles Center
Fri 14:48:12 36.6136 -114.3028 224° Southwest 404 748 32,000  Level Los Angeles Center
Fri 14:49:12 36.5336 -114.3978 222° Southwest 404 748 32,000  Level Los Angeles Center
Fri 14:50:11 36.4514 -114.4897 224° Southwest 404 748 32,000  Level Los Angeles Center
Fri 14:51:11 36.3692 -114.5869 223° Southwest 409 758 32,000  Level Los Angeles Center
Fri 14:52:11 36.2889 -114.6811 223° Southwest 409 758 32,000  Level Los Angeles Center
Fri 14:53:11 36.2067 -114.7753 223° Southwest 409 758 32,000  Level Los Angeles Center
Fri 14:54:11 36.1408 -114.8508 223° Southwest 409 758 32,000  Level Los Angeles Center
Fri 14:55:11 36.0519 -114.9550 222° Southwest 409 758 32,000  Level Los Angeles Center
Fri 14:56:11 35.9714 -115.0461 222° Southwest 409 758 32,000  Level Los Angeles Center
Fri 14:57:11 35.8908 -115.1369 224° Southwest 404 748 32,000  Level Los Angeles Center
Fri 14:58:12 35.8122 -115.2300 222° Southwest 404 748 32,000  Level Los Angeles Center
Fri 14:59:11 35.7294 -115.3206 222° Southwest 399 739 32,000  Level Los Angeles Center
Fri 15:00:11 35.6486 -115.4106 224° Southwest 399 739 32,000  Level Los Angeles Center
Fri 15:01:11 35.5700 -115.5033 222° Southwest 399 739 32,000  Level Los Angeles Center
Fri 15:02:11 35.4889 -115.5933 222° Southwest 399 739 32,000  Level Los Angeles Center
Fri 15:03:11 35.4039 -115.6856 221° Southwest 399 739 32,000  Level Los Angeles Center
Fri 15:04:12 35.3206 -115.7750 226° Southwest 399 739 32,000  Level Los Angeles Center
Fri 15:05:12 35.2458 -115.8694 220° Southwest 394 729 32,000  Level Los Angeles Center
Fri 15:06:11 35.1603 -115.9561 223° Southwest 394 729 32,000  Level Los Angeles Center
Fri 15:07:12 35.0811 -116.0478 222° Southwest 394 729 32,000 -200 Level Los Angeles Center
Fri 15:08:11 34.9997 -116.1364 223° Southwest 394 729 31,600 -756 Descending Los Angeles Center
Fri 15:09:11 34.9183 -116.2275 222° Southwest 394 729 30,500 -1,100 Descending Los Angeles Center
Fri 15:10:11 34.8367 -116.3186 222° Southwest 389 721 29,400 -1,041 Descending Los Angeles Center
Fri 15:11:12 34.7531 -116.4094 222° Southwest 402 745 28,400 -1,100 Descending Los Angeles Center
Fri 15:12:11 34.6694 -116.5000 221° Southwest 402 745 27,200 -706 Descending Los Angeles Center
Fri 15:13:11 34.5794 -116.5956 222° Southwest 407 753 27,000 -99 Descending Los Angeles Center
Fri 15:14:12 34.4869 -116.6983 222° Southwest 436 808 27,000 -150 Level Los Angeles Center
Fri 15:15:11 34.3925 -116.8008 223° Southwest 447 827 26,700 -1,916 Descending Los Angeles Center
Fri 15:16:11 34.2981 -116.9058 222° Southwest 452 837 23,200 -3,300 Descending Los Angeles Center
Fri 15:17:11 34.2056 -117.0053 222° Southwest 452 837 20,100 -2,650 Descending Los Angeles Center
Fri 15:18:11 34.1086 -117.1122 244° Southwest 452 837 17,900 -1,944 Descending Los Angeles Center
Fri 15:18:22 34.1000 -117.1333 243° Southwest 403 747 17,800 -1,417 Descending Southern California TRACON
Fri 15:19:23 34.0500 -117.2500 259° West 366 678 16,200 -1,438 Descending Southern California TRACON
Fri 15:20:23 34.0333 -117.3500 270° West 324 600 14,900 -1,400 Descending Southern California TRACON
Fri 15:21:23 34.0333 -117.4500 259° West 308 570 13,400 -1,400 Descending Southern California TRACON
Fri 15:22:23 34.0167 -117.5500 270° West 294 544 12,100 -1,300 Descending Southern California TRACON
Fri 15:23:23 34.0167 -117.6500 259° West 284 526 10,800 -1,300 Descending Southern California TRACON
Fri 15:24:23 34.0000 -117.7500 270° West 280 518 9,500 -1,300 Descending Southern California TRACON
Fri 15:25:23 34.0000 -117.8333 259° West 279 517 8,200 -1,150 Descending Southern California TRACON
Fri 15:26:23 33.9833 -117.9333 256° West 269 499 7,200 -1,041 Descending Southern California TRACON
Fri 15:27:24 33.9667 -118.0167 270° West 267 494 6,100 -1,091 Descending Southern California TRACON
Fri 15:28:24 33.9667 -118.1000 256° West 260 481 5,000 -1,350 Descending Southern California TRACON
Fri 15:29:24 33.9500 -118.1833 270° West 225 417 3,400 -1,250 Descending Southern California TRACON
Fri 15:30:24 33.9500 -118.2500 270° West 174 322 2,500 -850 Descending Southern California TRACON
Fri 15:31:24 33.9500 -118.3000 270° West 149 275 1,700 -800 Descending Southern California TRACON
Fri 15:32:24 33.9500 -118.3333 255° West 129 238 900 -536 Descending Southern California TRACON
Fri 15:34:12 33.9325 -118.4119 262° West 134 248 200 11,107 Descending Los Angeles Center
Fri 15:35:12 33.9275 -118.4544 259° West 134 248 32,000 16,034 Climbing Los Angeles Center
Fri 15:36:11 33.9206 -118.4992 259° West 134 248 32,000  Level Los Angeles Center

Login

Don't have an account? Register now (free) for customized features, flight alerts, and more!